createdAt,value
2018-05-24T00:00:34.783Z,18.83
2018-05-24T00:03:02.188Z,15.17
2018-05-24T00:05:29.625Z,16.87
2018-05-24T00:07:57.945Z,16.75
2018-05-24T00:10:25.246Z,17.27
2018-05-24T00:12:52.636Z,23.53
2018-05-24T00:15:20.045Z,18.63
2018-05-24T00:17:47.445Z,29.50
2018-05-24T00:20:15.268Z,26.43
2018-05-24T00:22:42.672Z,17.00
2018-05-24T00:25:10.075Z,14.13
2018-05-24T00:27:37.485Z,16.53
2018-05-24T00:30:04.888Z,18.85
2018-05-24T00:32:32.284Z,23.50
2018-05-24T00:34:59.691Z,27.07
2018-05-24T00:37:27.885Z,23.70
2018-05-24T00:39:55.288Z,21.53
2018-05-24T00:42:22.682Z,27.03
2018-05-24T00:44:50.082Z,19.97
2018-05-24T00:47:17.482Z,18.23
2018-05-24T00:49:44.896Z,15.60
2018-05-24T00:52:12.295Z,14.75
2018-05-24T00:54:39.780Z,18.20
2018-05-24T00:57:07.091Z,14.47
2018-05-24T00:59:34.483Z,15.73
2018-05-24T01:02:01.896Z,14.90
2018-05-24T01:04:30.110Z,13.65
2018-05-24T01:06:57.515Z,14.37
2018-05-24T01:09:25.136Z,13.15
2018-05-24T01:11:52.523Z,10.27
2018-05-24T01:14:19.917Z,13.35
2018-05-24T01:16:47.343Z,13.50
2018-05-24T01:19:14.728Z,19.90
2018-05-24T01:21:42.128Z,15.90
2018-05-24T01:24:09.516Z,13.37
2018-05-24T01:26:36.915Z,13.83
2018-05-24T01:29:04.307Z,15.87
2018-05-24T01:31:31.712Z,15.37
2018-05-24T01:33:59.105Z,22.23
2018-05-24T01:36:38.290Z,21.27
2018-05-24T01:39:05.701Z,14.27
2018-05-24T01:41:33.111Z,13.50
2018-05-24T01:44:01.247Z,17.45
2018-05-24T01:46:28.652Z,13.17
2018-05-24T01:48:56.044Z,14.50
2018-05-24T01:51:23.448Z,14.47
2018-05-24T01:53:50.858Z,19.23
2018-05-24T01:56:18.262Z,22.70
2018-05-24T01:58:45.653Z,15.90
2018-05-24T02:01:13.039Z,20.27
2018-05-24T02:03:40.441Z,18.70
2018-05-24T02:06:07.848Z,21.10
2018-05-24T02:08:35.240Z,23.27
2018-05-24T02:11:02.632Z,16.87
2018-05-24T02:13:30.034Z,17.60
2018-05-24T02:15:57.435Z,17.90
2018-05-24T02:18:24.840Z,17.87
2018-05-24T02:20:52.236Z,18.07
2018-05-24T02:23:19.631Z,15.70
2018-05-24T02:25:47.036Z,18.10
2018-05-24T02:28:14.445Z,16.60
2018-05-24T02:30:41.858Z,20.10
2018-05-24T02:33:09.263Z,23.30
2018-05-24T02:35:36.665Z,19.13
2018-05-24T02:38:04.543Z,22.35
2018-05-24T02:40:31.939Z,18.67
2018-05-24T02:42:59.352Z,20.92
2018-05-24T02:45:26.757Z,20.77
2018-05-24T02:47:54.160Z,19.83
2018-05-24T02:50:21.553Z,20.42
2018-05-24T02:52:48.946Z,25.20
2018-05-24T02:55:16.345Z,19.40
2018-05-24T02:57:43.742Z,21.67
2018-05-24T03:00:11.140Z,19.80
2018-05-24T03:02:38.531Z,20.27
2018-05-24T03:05:05.956Z,21.67
2018-05-24T03:07:34.355Z,24.15
2018-05-24T03:10:01.760Z,25.70
2018-05-24T03:12:29.156Z,24.93
2018-05-24T03:14:56.564Z,26.58
2018-05-24T03:17:23.963Z,26.43
2018-05-24T03:19:51.365Z,26.30
2018-05-24T03:22:18.777Z,22.50
2018-05-24T03:24:46.168Z,22.60
2018-05-24T03:27:13.583Z,23.00
2018-05-24T03:29:40.980Z,20.27
2018-05-24T03:32:08.384Z,21.03
2018-05-24T03:34:35.783Z,21.13
2018-05-24T03:37:03.168Z,17.20
2018-05-24T03:39:30.584Z,16.40
2018-05-24T03:41:57.972Z,17.70
2018-05-24T03:44:25.433Z,17.13
2018-05-24T03:46:52.771Z,17.30
2018-05-24T03:49:20.175Z,16.70
2018-05-24T03:51:47.570Z,17.57
2018-05-24T03:54:14.983Z,17.00
2018-05-24T03:56:42.388Z,18.30
2018-05-24T04:02:35.109Z,27.83
2018-05-24T04:05:03.150Z,24.77
2018-05-24T04:07:30.548Z,30.23
2018-05-24T04:09:57.939Z,27.60
2018-05-24T04:12:25.351Z,30.67
2018-05-24T04:14:52.753Z,27.13
2018-05-24T04:17:20.148Z,30.37
2018-05-24T04:19:47.558Z,26.37
2018-05-24T04:22:14.957Z,23.30
2018-05-24T04:24:42.364Z,24.95
2018-05-24T04:27:09.846Z,25.33
2018-05-24T04:29:37.946Z,27.80
2018-05-24T04:32:05.347Z,24.03
2018-05-24T04:34:32.736Z,23.70
2018-05-24T04:37:00.134Z,23.85
2018-05-24T04:39:27.527Z,19.77
2018-05-24T04:41:54.944Z,21.00
2018-05-24T04:44:22.351Z,21.60
2018-05-24T04:46:50.194Z,20.87
2018-05-24T04:49:17.584Z,25.80
2018-05-24T04:51:45.000Z,24.33
2018-05-24T04:54:12.393Z,16.83
2018-05-24T04:56:39.804Z,18.80
2018-05-24T04:59:07.188Z,19.37
2018-05-24T05:01:34.611Z,18.97
2018-05-24T05:04:01.998Z,17.67
2018-05-24T05:06:29.406Z,15.95
2018-05-24T05:08:56.817Z,17.83
2018-05-24T05:11:24.205Z,16.83
2018-05-24T05:13:51.606Z,19.00
2018-05-24T05:16:19.010Z,17.43
2018-05-24T05:18:46.485Z,17.13
2018-05-24T05:21:13.900Z,17.73
2018-05-24T05:23:41.304Z,15.63
2018-05-24T05:26:08.713Z,15.93
2018-05-24T05:28:36.112Z,19.03
2018-05-24T05:31:03.510Z,16.77
2018-05-24T05:33:30.984Z,17.07
2018-05-24T05:35:58.377Z,19.03
2018-05-24T05:38:25.788Z,17.47
2018-05-24T05:40:53.395Z,15.17
2018-05-24T05:43:20.800Z,17.77
2018-05-24T05:45:48.198Z,21.75
2018-05-24T05:48:15.621Z,20.37
2018-05-24T05:50:43.014Z,21.03
2018-05-24T05:53:10.417Z,20.53
2018-05-24T05:55:37.817Z,19.77
2018-05-24T05:58:05.222Z,19.93
2018-05-24T06:00:32.621Z,18.80
2018-05-24T06:03:00.037Z,17.27
2018-05-24T06:05:27.449Z,21.33
2018-05-24T06:07:54.866Z,19.63
2018-05-24T06:10:22.260Z,17.37
2018-05-24T06:12:49.672Z,22.70
2018-05-24T06:15:17.075Z,18.10
2018-05-24T06:17:44.473Z,17.60
2018-05-24T06:20:12.907Z,24.58
2018-05-24T06:22:40.316Z,20.60
2018-05-24T06:25:07.715Z,18.33
2018-05-24T06:27:35.129Z,22.33
2018-05-24T06:30:02.521Z,17.50
2018-05-24T06:32:29.949Z,19.90
2018-05-24T06:34:57.353Z,16.73
2018-05-24T06:37:24.760Z,17.23
2018-05-24T06:39:52.156Z,15.97
2018-05-24T06:42:19.576Z,21.40
2018-05-24T06:44:46.988Z,21.58
2018-05-24T06:47:14.380Z,18.93
2018-05-24T06:49:41.780Z,15.80
2018-05-24T06:52:09.199Z,20.77
2018-05-24T06:54:36.594Z,16.13
2018-05-24T06:57:03.997Z,17.20
2018-05-24T06:59:31.429Z,17.57
2018-05-24T07:01:59.700Z,18.10
2018-05-24T07:04:27.105Z,20.93
2018-05-24T07:06:54.509Z,20.90
2018-05-24T07:09:21.928Z,20.47
2018-05-24T07:11:50.277Z,22.92
2018-05-24T07:14:17.688Z,28.73
2018-05-24T07:16:45.773Z,29.12
2018-05-24T07:19:13.177Z,25.40
2018-05-24T07:21:40.580Z,49.80
2018-05-24T07:24:08.280Z,25.73
2018-05-24T07:26:35.693Z,33.90
2018-05-24T07:29:03.093Z,26.73
2018-05-24T07:31:30.501Z,29.30
2018-05-24T07:33:57.956Z,22.93
2018-05-24T07:36:25.341Z,27.43
2018-05-24T07:38:52.741Z,24.63
2018-05-24T07:41:20.144Z,40.13
2018-05-24T07:43:47.549Z,25.13
2018-05-24T07:46:14.944Z,23.03
2018-05-24T07:48:43.061Z,21.17
2018-05-24T07:51:10.455Z,22.50
2018-05-24T07:53:37.865Z,25.80
2018-05-24T07:56:05.279Z,22.80
2018-05-24T07:58:32.686Z,21.25
2018-05-24T08:01:00.091Z,24.90
2018-05-24T08:03:27.492Z,21.30
2018-05-24T08:05:54.906Z,24.20
2018-05-24T08:08:22.296Z,22.87
2018-05-24T19:53:18.864Z,17.37
2018-05-24T19:55:46.301Z,16.00
2018-05-24T19:58:15.021Z,19.47
2018-05-24T20:00:43.205Z,15.27
2018-05-24T20:03:11.300Z,16.20
2018-05-24T20:05:39.356Z,17.83
2018-05-24T20:08:06.966Z,18.60
2018-05-24T20:10:34.369Z,14.73
2018-05-24T20:13:01.823Z,15.37
2018-05-24T20:15:29.167Z,15.82
2018-05-24T20:17:56.584Z,20.17
2018-05-24T20:20:24.043Z,20.70
2018-05-24T20:22:51.431Z,18.10
2018-05-24T20:25:18.855Z,19.35
2018-05-24T20:27:46.236Z,20.37
2018-05-24T20:30:13.949Z,19.50
2018-05-24T20:32:42.876Z,21.37
2018-05-24T20:35:10.597Z,23.60
2018-05-24T20:37:39.818Z,21.87
2018-05-24T20:40:15.400Z,23.17
2018-05-24T20:42:45.326Z,22.70
2018-05-24T20:45:12.743Z,21.37
2018-05-24T20:47:40.142Z,21.40
2018-05-24T20:50:14.080Z,19.17
2018-05-24T20:52:41.491Z,16.83
2018-05-24T20:55:10.487Z,18.33
2018-05-24T20:57:39.928Z,21.48
2018-05-24T21:00:08.574Z,19.47
2018-05-24T21:02:39.520Z,21.10
2018-05-24T21:05:09.863Z,26.03
2018-05-24T21:07:43.428Z,22.20
2018-05-24T21:10:10.823Z,22.67
2018-05-24T21:12:41.313Z,24.50
2018-05-24T21:15:09.773Z,25.07
2018-05-24T21:20:15.380Z,29.87
2018-05-24T21:22:42.779Z,32.83
2018-05-24T21:25:10.179Z,27.83
2018-05-24T21:27:37.584Z,28.00
2018-05-24T21:30:04.997Z,30.00
2018-05-24T21:32:32.386Z,30.57
2018-05-24T21:34:59.803Z,28.20
2018-05-24T21:37:27.200Z,31.60
2018-05-24T21:39:54.620Z,28.47
2018-05-24T21:42:22.005Z,26.47
2018-05-24T21:44:49.454Z,25.00
2018-05-24T21:47:16.818Z,26.80
2018-05-24T21:49:44.226Z,29.70
2018-05-24T21:52:11.617Z,30.23
2018-05-24T21:54:39.016Z,28.87
2018-05-24T21:57:06.417Z,27.57
2018-05-24T23:11:46.003Z,59.17
2018-05-24T23:14:13.393Z,73.10
2018-05-24T23:16:40.788Z,66.83
2018-05-24T23:19:08.182Z,70.50
2018-05-24T23:21:35.592Z,76.30
2018-05-24T23:24:02.973Z,67.93
2018-05-24T23:26:30.398Z,57.83
2018-05-24T23:28:57.796Z,62.70
2018-05-24T23:31:25.216Z,83.20
2018-05-24T23:33:52.611Z,65.53
2018-05-24T23:36:20.015Z,54.97
2018-05-24T23:38:47.420Z,48.20
2018-05-24T23:41:14.824Z,51.72
2018-05-24T23:43:42.460Z,50.67
2018-05-24T23:46:10.580Z,46.83
2018-05-24T23:48:37.985Z,44.43
2018-05-24T23:51:05.370Z,43.70
2018-05-24T23:53:32.780Z,40.20
2018-05-24T23:56:00.173Z,37.30
2018-05-24T23:58:27.583Z,33.40
